createdAt,value
2022-09-22T00:00:39.300Z,100.00
2022-09-22T00:03:18.539Z,100.00
2022-09-22T00:06:08.889Z,100.00
2022-09-22T00:08:43.201Z,100.00
2022-09-22T00:11:22.882Z,100.00
2022-09-22T00:14:03.481Z,100.00
2022-09-22T00:16:37.404Z,100.00
2022-09-22T00:19:32.225Z,100.00
2022-09-22T00:22:05.946Z,100.00
2022-09-22T00:24:38.437Z,100.00
2022-09-22T00:27:11.408Z,100.00
2022-09-22T00:29:48.915Z,100.00
2022-09-22T00:32:30.265Z,100.00
2022-09-22T00:35:03.222Z,100.00
2022-09-22T00:37:41.355Z,100.00
2022-09-22T00:40:17.977Z,100.00
2022-09-22T00:43:14.667Z,100.00
2022-09-22T00:45:51.472Z,100.00
2022-09-22T00:48:26.215Z,100.00
2022-09-22T00:51:06.255Z,100.00
2022-09-22T00:53:45.425Z,100.00
2022-09-22T00:56:24.217Z,100.00
2022-09-22T00:59:21.734Z,100.00
2022-09-22T01:02:08.829Z,100.00
2022-09-22T01:04:44.719Z,100.00
2022-09-22T01:07:18.398Z,100.00
2022-09-22T01:09:55.119Z,100.00
2022-09-22T01:12:33.903Z,100.00
2022-09-22T01:15:30.836Z,100.00
2022-09-22T01:18:23.803Z,100.00
2022-09-22T01:21:22.190Z,100.00
2022-09-22T01:24:26.218Z,100.00
2022-09-22T01:27:02.437Z,100.00
2022-09-22T01:30:28.155Z,100.00
2022-09-22T01:33:06.634Z,100.00
2022-09-22T01:35:56.959Z,100.00
2022-09-22T01:38:58.758Z,100.00
2022-09-22T01:42:03.332Z,100.00
2022-09-22T01:44:42.688Z,100.00
2022-09-22T01:47:34.311Z,100.00
2022-09-22T01:50:21.042Z,100.00
2022-09-22T01:53:01.547Z,100.00
2022-09-22T01:55:41.224Z,100.00
2022-09-22T01:58:24.568Z,100.00
2022-09-22T02:01:13.627Z,100.00
2022-09-22T02:04:00.338Z,100.00
2022-09-22T02:06:51.179Z,100.00
2022-09-22T02:09:26.410Z,100.00
2022-09-22T02:12:01.731Z,100.00
2022-09-22T02:14:34.609Z,100.00
2022-09-22T02:17:14.532Z,100.00
2022-09-22T02:19:50.539Z,100.00
2022-09-22T02:22:28.773Z,100.00
2022-09-22T02:25:04.267Z,100.00
2022-09-22T02:27:41.019Z,100.00
2022-09-22T02:30:23.714Z,100.00
2022-09-22T02:33:02.250Z,100.00
2022-09-22T02:35:40.111Z,100.00
2022-09-22T02:38:25.715Z,100.00
2022-09-22T02:41:12.565Z,100.00
2022-09-22T02:43:51.946Z,100.00
2022-09-22T02:46:27.474Z,100.00
2022-09-22T02:49:06.272Z,100.00
2022-09-22T02:51:39.636Z,100.00
2022-09-22T02:54:21.759Z,100.00
2022-09-22T02:57:07.495Z,100.00
2022-09-22T02:59:40.033Z,100.00
2022-09-22T03:02:18.377Z,100.00
2022-09-22T03:04:59.115Z,100.00
2022-09-22T03:07:36.609Z,100.00
2022-09-22T03:10:12.196Z,100.00
2022-09-22T03:13:09.156Z,100.00
2022-09-22T03:15:53.858Z,100.00
2022-09-22T03:18:31.436Z,100.00
2022-09-22T03:21:07.018Z,100.00
2022-09-22T03:23:48.414Z,100.00
2022-09-22T03:26:25.503Z,100.00
2022-09-22T03:29:00.581Z,100.00
2022-09-22T03:31:40.471Z,100.00
2022-09-22T03:34:12.832Z,100.00
2022-09-22T03:36:52.624Z,100.00
2022-09-22T03:39:30.460Z,100.00
2022-09-22T03:42:08.395Z,100.00
2022-09-22T03:44:52.507Z,100.00
2022-09-22T03:47:30.698Z,100.00
2022-09-22T03:50:06.461Z,100.00
2022-09-22T03:52:40.267Z,100.00
2022-09-22T03:55:24.975Z,100.00
2022-09-22T03:58:08.069Z,100.00
2022-09-22T04:00:44.239Z,100.00
2022-09-22T04:03:16.773Z,100.00
2022-09-22T04:05:55.996Z,100.00
2022-09-22T04:08:35.298Z,100.00
2022-09-22T04:14:01.543Z,100.00
2022-09-22T04:16:42.766Z,100.00
2022-09-22T04:19:14.158Z,100.00
2022-09-22T04:21:56.897Z,100.00
2022-09-22T04:24:33.382Z,100.00
2022-09-22T04:27:20.911Z,100.00
2022-09-22T04:30:03.242Z,100.00
2022-09-22T04:32:36.896Z,100.00
2022-09-22T04:35:18.814Z,100.00
2022-09-22T04:37:56.728Z,100.00
2022-09-22T04:40:42.619Z,100.00
2022-09-22T04:43:15.708Z,100.00
2022-09-22T04:45:49.037Z,100.00
2022-09-22T04:48:30.281Z,100.00
2022-09-22T04:51:08.074Z,100.00
2022-09-22T04:53:43.342Z,100.00
2022-09-22T04:56:18.575Z,100.00
2022-09-22T04:58:56.732Z,100.00
2022-09-22T05:01:27.474Z,100.00
2022-09-22T05:04:08.111Z,100.00
2022-09-22T05:06:39.666Z,100.00
2022-09-22T05:09:23.076Z,100.00
2022-09-22T05:12:02.681Z,100.00
2022-09-22T05:14:40.104Z,100.00
2022-09-22T05:17:16.384Z,100.00
2022-09-22T05:19:50.076Z,100.00
2022-09-22T05:22:23.074Z,100.00
2022-09-22T05:25:04.374Z,100.00
2022-09-22T05:27:38.163Z,100.00
2022-09-22T05:30:17.146Z,100.00
2022-09-22T05:32:52.806Z,100.00
2022-09-22T05:35:36.877Z,100.00
2022-09-22T05:38:09.449Z,100.00
2022-09-22T05:40:39.649Z,100.00
2022-09-22T05:43:18.298Z,100.00
2022-09-22T05:45:50.892Z,100.00
2022-09-22T05:48:32.745Z,100.00
2022-09-22T05:51:16.027Z,100.00
2022-09-22T05:53:57.638Z,100.00
2022-09-22T05:56:31.375Z,100.00
2022-09-22T05:59:06.726Z,100.00
2022-09-22T06:01:39.557Z,100.00
2022-09-22T06:04:18.589Z,100.00
2022-09-22T06:06:56.449Z,100.00
2022-09-22T06:09:33.979Z,100.00
2022-09-22T06:12:13.055Z,100.00
2022-09-22T06:14:52.237Z,100.00
2022-09-22T06:17:27.879Z,100.00
2022-09-22T06:19:58.721Z,100.00
2022-09-22T06:22:31.376Z,100.00
2022-09-22T06:25:05.572Z,100.00
2022-09-22T06:27:40.843Z,100.00
2022-09-22T06:30:13.609Z,100.00
2022-09-22T06:32:54.346Z,100.00
2022-09-22T06:35:38.789Z,100.00
2022-09-22T06:38:17.277Z,100.00
2022-09-22T06:40:45.935Z,100.00
2022-09-22T06:43:27.734Z,100.00
2022-09-22T06:46:08.640Z,100.00
2022-09-22T06:48:35.915Z,100.00
2022-09-22T06:51:10.827Z,100.00
2022-09-22T06:53:48.602Z,99.72
2022-09-22T06:56:20.399Z,96.81
2022-09-22T06:59:09.544Z,98.01
2022-09-22T07:01:43.983Z,96.16
2022-09-22T07:04:20.752Z,95.58
2022-09-22T07:06:50.467Z,92.61
2022-09-22T07:09:25.664Z,93.19
2022-09-22T07:11:58.654Z,88.68
2022-09-22T07:14:35.590Z,87.15
2022-09-22T07:17:08.161Z,87.04
2022-09-22T07:19:38.376Z,84.35
2022-09-22T07:22:11.075Z,87.76
2022-09-22T07:24:44.413Z,84.32
2022-09-22T07:27:26.309Z,84.97
2022-09-22T07:29:57.721Z,81.79
2022-09-22T07:32:25.006Z,82.70
2022-09-22T07:34:56.327Z,78.90
2022-09-22T07:37:42.342Z,79.05
2022-09-22T07:40:23.334Z,80.43
2022-09-22T07:43:01.595Z,76.73
2022-09-22T07:45:34.114Z,77.12
2022-09-22T07:48:37.435Z,81.32
2022-09-22T07:51:16.507Z,79.09
2022-09-22T07:54:10.181Z,78.94
2022-09-22T07:56:52.970Z,78.37
2022-09-22T07:59:22.593Z,78.95
2022-09-22T08:01:53.177Z,78.72
2022-09-22T08:04:24.282Z,78.98
2022-09-22T08:07:00.145Z,78.75
2022-09-22T08:09:34.267Z,77.53
2022-09-22T08:12:10.689Z,74.15
2022-09-22T08:14:50.042Z,76.72
2022-09-22T08:17:30.931Z,75.24
2022-09-22T08:20:10.611Z,72.91
2022-09-22T08:22:44.264Z,73.99
2022-09-22T08:25:12.861Z,71.81
2022-09-22T08:27:48.099Z,71.09
2022-09-22T08:30:26.804Z,71.82
2022-09-22T08:33:00.843Z,74.18
2022-09-22T08:35:41.503Z,72.57
2022-09-22T08:38:20.099Z,73.98
2022-09-22T08:40:59.435Z,71.37
2022-09-22T08:43:29.924Z,68.60
2022-09-22T08:45:58.100Z,67.52
2022-09-22T08:48:50.063Z,65.85
2022-09-22T08:51:52.367Z,67.50
2022-09-22T08:54:35.458Z,66.46
2022-09-22T08:57:11.617Z,66.32
2022-09-22T09:00:20.060Z,66.39
2022-09-22T09:03:23.500Z,66.86
2022-09-22T09:06:36.724Z,68.29
2022-09-22T09:09:29.693Z,67.29
2022-09-22T09:12:16.367Z,66.23
2022-09-22T09:15:17.188Z,63.88
2022-09-22T09:17:50.460Z,63.39
2022-09-22T09:20:49.377Z,64.97
2022-09-22T09:23:24.756Z,64.57
2022-09-22T09:26:03.670Z,64.10
2022-09-22T09:28:48.002Z,63.46
2022-09-22T09:31:29.081Z,64.04
2022-09-22T09:34:07.863Z,63.69
2022-09-22T09:36:45.634Z,60.98
2022-09-22T09:39:40.355Z,61.39
2022-09-22T09:42:29.394Z,61.32
2022-09-22T09:45:02.573Z,62.73
2022-09-22T09:47:49.350Z,60.57
2022-09-22T09:50:26.742Z,63.54
2022-09-22T09:52:58.411Z,59.57
2022-09-22T09:55:48.137Z,59.10
2022-09-22T09:58:41.760Z,59.37
2022-09-22T10:01:14.491Z,60.22
2022-09-22T10:03:58.187Z,58.85
2022-09-22T10:06:26.594Z,58.37
2022-09-22T10:08:59.526Z,56.70
2022-09-22T10:11:38.752Z,55.61
2022-09-22T10:14:19.378Z,56.07
2022-09-22T10:16:55.377Z,53.69
2022-09-22T10:19:32.261Z,55.83
2022-09-22T10:22:29.463Z,53.82
2022-09-22T10:24:59.371Z,54.12
2022-09-22T10:27:30.162Z,55.72
2022-09-22T10:30:23.260Z,57.06
2022-09-22T10:33:13.622Z,54.60
2022-09-22T10:36:11.784Z,51.83
2022-09-22T10:38:49.225Z,50.16
2022-09-22T10:41:29.213Z,49.59
2022-09-22T10:44:15.462Z,50.92
2022-09-22T10:47:22.487Z,50.09
2022-09-22T10:50:18.740Z,50.72
2022-09-22T10:53:10.343Z,50.56
2022-09-22T10:56:18.778Z,50.15
2022-09-22T10:59:10.109Z,50.05
2022-09-22T11:02:16.264Z,49.37
2022-09-22T11:05:08.124Z,48.59
2022-09-22T11:08:39.046Z,49.76
2022-09-22T11:11:46.550Z,49.17
2022-09-22T11:14:43.240Z,48.58
2022-09-22T11:17:57.324Z,48.69
2022-09-22T11:20:40.318Z,49.59
2022-09-22T11:23:34.855Z,47.36
2022-09-22T11:26:31.590Z,48.37
2022-09-22T11:29:20.552Z,45.75
2022-09-22T11:32:19.878Z,49.73
2022-09-22T11:35:11.884Z,46.63
2022-09-22T11:38:12.822Z,47.32
2022-09-22T11:40:54.677Z,52.30
2022-09-22T11:43:28.482Z,59.59
2022-09-22T11:46:19.937Z,57.30
2022-09-22T11:49:10.064Z,55.10
2022-09-22T11:52:09.631Z,52.90
2022-09-22T11:54:51.643Z,56.19
2022-09-22T11:57:26.370Z,56.29
2022-09-22T12:00:08.999Z,62.53
2022-09-22T12:02:49.308Z,59.21
2022-09-22T12:05:37.200Z,59.00
2022-09-22T12:08:14.210Z,58.67
2022-09-22T12:10:45.717Z,57.30
2022-09-22T12:13:23.185Z,58.49
2022-09-22T12:16:14.083Z,58.05
2022-09-22T12:18:57.650Z,57.17
2022-09-22T12:21:48.049Z,57.83
2022-09-22T12:24:16.131Z,59.13
2022-09-22T12:26:46.346Z,59.41
2022-09-22T12:29:19.422Z,61.90
2022-09-22T12:31:49.163Z,61.17
2022-09-22T12:34:22.577Z,61.27
2022-09-22T12:36:59.913Z,61.26
2022-09-22T12:39:32.429Z,60.89
2022-09-22T12:42:19.029Z,62.12
2022-09-22T12:45:00.800Z,61.63
2022-09-22T12:47:33.630Z,63.48
2022-09-22T12:50:06.123Z,63.32
2022-09-22T12:52:52.967Z,62.12
2022-09-22T12:55:45.199Z,63.94
2022-09-22T12:58:30.550Z,60.16
2022-09-22T13:01:32.739Z,62.41
2022-09-22T13:04:17.337Z,61.34
2022-09-22T13:06:47.467Z,64.50
2022-09-22T13:09:25.656Z,62.79
2022-09-22T13:12:17.648Z,60.43
2022-09-22T13:14:59.679Z,59.34
2022-09-22T13:17:46.811Z,58.03
2022-09-22T13:20:25.562Z,59.08
2022-09-22T13:22:52.727Z,57.79
2022-09-22T13:25:36.541Z,56.42
2022-09-22T13:28:15.823Z,54.53
2022-09-22T13:30:47.136Z,54.86
2022-09-22T13:33:31.421Z,53.85
2022-09-22T13:36:16.687Z,56.68
2022-09-22T13:38:51.164Z,54.34
2022-09-22T13:41:26.532Z,52.76
2022-09-22T13:44:08.035Z,54.56
2022-09-22T13:46:57.059Z,53.14
2022-09-22T13:49:34.521Z,51.86
2022-09-22T13:52:20.592Z,49.99
2022-09-22T13:55:12.182Z,52.58
2022-09-22T13:57:53.529Z,50.66
2022-09-22T14:01:01.493Z,50.83
2022-09-22T14:03:27.359Z,53.30
2022-09-22T14:05:56.784Z,55.91
2022-09-22T14:08:34.006Z,53.33
2022-09-22T14:11:04.318Z,54.53
2022-09-22T14:14:02.337Z,52.23
2022-09-22T14:16:59.120Z,51.06
2022-09-22T14:19:47.595Z,53.34
2022-09-22T14:22:42.131Z,53.14
2022-09-22T14:25:20.780Z,52.71
2022-09-22T14:27:55.634Z,52.79
2022-09-22T14:30:30.945Z,54.81
2022-09-22T14:33:06.981Z,52.17
2022-09-22T14:35:54.952Z,54.75
2022-09-22T14:38:24.898Z,55.23
2022-09-22T14:41:39.376Z,56.10
2022-09-22T14:44:53.001Z,56.64
2022-09-22T14:47:46.431Z,54.59
2022-09-22T14:50:26.452Z,53.13
2022-09-22T14:53:14.329Z,56.49
2022-09-22T14:56:07.282Z,58.82
2022-09-22T14:58:41.667Z,58.95
2022-09-22T15:01:45.177Z,56.70
2022-09-22T15:04:33.039Z,57.04
2022-09-22T15:07:08.045Z,57.95
2022-09-22T15:10:17.847Z,61.22
2022-09-22T15:15:34.733Z,63.16
2022-09-22T15:18:19.652Z,64.50
2022-09-22T15:24:15.437Z,69.34
2022-09-22T15:26:52.446Z,69.38
2022-09-22T15:29:34.035Z,71.64
2022-09-22T15:32:16.013Z,72.33
2022-09-22T15:34:55.141Z,68.01
2022-09-22T15:37:42.344Z,72.39
2022-09-22T15:40:24.742Z,79.85
2022-09-22T15:43:13.485Z,87.14
2022-09-22T15:45:52.823Z,91.73
2022-09-22T15:51:23.570Z,93.72
2022-09-22T15:53:59.258Z,97.31
2022-09-22T15:56:33.241Z,99.12
2022-09-22T15:59:19.191Z,99.96
2022-09-22T16:01:54.010Z,100.00
2022-09-22T16:04:21.803Z,100.00
2022-09-22T16:07:16.500Z,100.00
2022-09-22T16:09:49.428Z,100.00
2022-09-22T16:12:18.676Z,100.00
2022-09-22T16:14:57.232Z,92.46
2022-09-22T16:17:45.782Z,86.35
2022-09-22T16:20:27.734Z,84.97
2022-09-22T16:23:05.229Z,83.48
2022-09-22T16:25:42.269Z,83.42
2022-09-22T16:28:18.294Z,85.33
2022-09-22T16:30:53.570Z,87.85
2022-09-22T16:33:26.534Z,90.83
2022-09-22T16:35:56.572Z,93.47
2022-09-22T16:38:26.813Z,96.26
2022-09-22T16:41:04.735Z,98.50
2022-09-22T16:43:37.242Z,100.00
2022-09-22T16:46:36.135Z,100.00
2022-09-22T16:49:22.589Z,100.00
2022-09-22T16:51:54.439Z,100.00
2022-09-22T16:54:28.625Z,100.00
2022-09-22T16:56:56.334Z,100.00
2022-09-22T16:59:31.955Z,100.00
2022-09-22T17:02:04.854Z,100.00
2022-09-22T17:04:32.501Z,100.00
2022-09-22T17:07:08.789Z,100.00
2022-09-22T17:12:32.144Z,100.00
2022-09-22T17:15:05.449Z,100.00
2022-09-22T17:17:45.377Z,100.00
2022-09-22T17:20:13.903Z,100.00
2022-09-22T17:22:47.163Z,100.00
2022-09-22T17:25:16.690Z,100.00
2022-09-22T17:27:49.859Z,100.00
2022-09-22T17:30:25.381Z,100.00
2022-09-22T17:32:59.217Z,100.00
2022-09-22T17:35:31.650Z,100.00
2022-09-22T17:38:06.308Z,100.00
2022-09-22T17:40:47.085Z,100.00
2022-09-22T17:43:15.351Z,100.00
2022-09-22T17:45:55.835Z,100.00
2022-09-22T17:48:50.271Z,100.00
2022-09-22T17:51:56.100Z,100.00
2022-09-22T17:55:00.826Z,100.00
2022-09-22T17:57:34.216Z,100.00
2022-09-22T18:00:13.725Z,100.00
2022-09-22T18:02:49.981Z,100.00
2022-09-22T18:05:29.948Z,100.00
2022-09-22T18:08:10.600Z,100.00
2022-09-22T18:10:46.174Z,100.00
2022-09-22T18:13:23.203Z,100.00
2022-09-22T18:16:06.140Z,100.00
2022-09-22T18:18:41.269Z,100.00
2022-09-22T18:21:16.147Z,100.00
2022-09-22T18:23:51.792Z,100.00
2022-09-22T18:26:39.784Z,100.00
2022-09-22T18:29:18.232Z,100.00
2022-09-22T18:31:48.705Z,100.00
2022-09-22T18:34:34.941Z,100.00
2022-09-22T18:37:27.504Z,100.00
2022-09-22T18:40:08.118Z,100.00
2022-09-22T18:42:50.271Z,100.00
2022-09-22T18:45:17.474Z,100.00
2022-09-22T18:47:58.703Z,100.00
2022-09-22T18:50:35.838Z,100.00
2022-09-22T18:53:17.928Z,100.00
2022-09-22T18:55:53.425Z,100.00
2022-09-22T18:58:29.275Z,100.00
2022-09-22T19:01:04.473Z,100.00
2022-09-22T19:03:41.503Z,100.00
2022-09-22T19:06:20.757Z,100.00
2022-09-22T19:09:04.085Z,100.00
2022-09-22T19:11:38.566Z,100.00
2022-09-22T19:14:17.925Z,100.00
2022-09-22T19:16:59.608Z,100.00
2022-09-22T19:19:46.051Z,100.00
2022-09-22T19:22:21.817Z,100.00
2022-09-22T19:25:00.482Z,100.00
2022-09-22T19:27:36.689Z,100.00
2022-09-22T19:30:24.069Z,100.00
2022-09-22T19:33:05.911Z,100.00
2022-09-22T19:35:41.497Z,100.00
2022-09-22T19:38:25.873Z,100.00
2022-09-22T19:41:06.194Z,100.00
2022-09-22T19:43:50.175Z,100.00
2022-09-22T19:46:25.302Z,100.00
2022-09-22T19:49:09.955Z,100.00
2022-09-22T19:51:43.411Z,100.00
2022-09-22T19:54:16.130Z,100.00
2022-09-22T19:56:55.053Z,100.00
2022-09-22T19:59:32.780Z,100.00
2022-09-22T20:02:14.207Z,100.00
2022-09-22T20:04:56.051Z,100.00
2022-09-22T20:07:34.749Z,100.00
2022-09-22T20:10:18.678Z,100.00
2022-09-22T20:12:56.264Z,100.00
2022-09-22T20:15:31.629Z,100.00
2022-09-22T20:18:05.593Z,100.00
2022-09-22T20:20:51.181Z,100.00
2022-09-22T20:23:24.342Z,100.00
2022-09-22T20:25:57.387Z,100.00
2022-09-22T20:28:36.180Z,100.00
2022-09-22T20:31:14.352Z,100.00
2022-09-22T20:33:55.647Z,100.00
2022-09-22T20:36:35.987Z,100.00
2022-09-22T20:39:18.102Z,100.00
2022-09-22T20:41:55.836Z,100.00
2022-09-22T20:44:32.295Z,100.00
2022-09-22T20:47:07.262Z,100.00
2022-09-22T20:49:45.915Z,100.00
2022-09-22T20:52:27.959Z,100.00
2022-09-22T20:55:05.103Z,100.00
2022-09-22T20:57:42.828Z,100.00
2022-09-22T21:00:19.098Z,100.00
2022-09-22T21:03:01.667Z,100.00
2022-09-22T21:05:37.048Z,100.00
2022-09-22T21:08:34.194Z,100.00
2022-09-22T21:11:08.259Z,100.00
2022-09-22T21:13:46.423Z,100.00
2022-09-22T21:16:38.470Z,100.00
2022-09-22T21:19:12.843Z,100.00
2022-09-22T21:21:45.427Z,100.00
2022-09-22T21:24:31.111Z,100.00
2022-09-22T21:27:14.588Z,100.00
2022-09-22T21:29:45.096Z,100.00
2022-09-22T21:32:24.632Z,100.00
2022-09-22T21:35:01.590Z,100.00
2022-09-22T21:37:40.350Z,100.00
2022-09-22T21:40:17.713Z,100.00
2022-09-22T21:42:52.147Z,100.00
2022-09-22T21:45:28.356Z,100.00
2022-09-22T21:48:06.742Z,100.00
2022-09-22T21:50:42.016Z,100.00
2022-09-22T21:53:20.476Z,100.00
2022-09-22T21:56:11.680Z,100.00
2022-09-22T21:58:45.178Z,100.00
2022-09-22T22:01:29.335Z,100.00
2022-09-22T22:04:17.862Z,100.00
2022-09-22T22:06:52.176Z,100.00
2022-09-22T22:09:27.693Z,100.00
2022-09-22T22:12:02.988Z,100.00
2022-09-22T22:14:49.282Z,100.00
2022-09-22T22:17:21.737Z,100.00
2022-09-22T22:19:59.221Z,100.00
2022-09-22T22:22:29.371Z,100.00
2022-09-22T22:25:07.168Z,100.00
2022-09-22T22:27:50.622Z,100.00
2022-09-22T22:30:30.950Z,100.00
2022-09-22T22:33:12.548Z,100.00
2022-09-22T22:36:01.943Z,100.00
2022-09-22T22:38:35.967Z,100.00
2022-09-22T22:41:15.342Z,100.00
2022-09-22T22:43:54.625Z,100.00
2022-09-22T22:46:27.543Z,100.00
2022-09-22T22:49:00.397Z,100.00
2022-09-22T22:51:43.235Z,100.00
2022-09-22T22:54:14.647Z,100.00
2022-09-22T22:56:52.493Z,100.00
2022-09-22T22:59:27.889Z,100.00
2022-09-22T23:02:06.484Z,100.00
2022-09-22T23:04:41.960Z,100.00
2022-09-22T23:07:17.669Z,100.00
2022-09-22T23:10:06.554Z,100.00
2022-09-22T23:12:43.976Z,100.00
2022-09-22T23:15:26.355Z,100.00
2022-09-22T23:18:07.487Z,100.00
2022-09-22T23:20:45.057Z,100.00
2022-09-22T23:23:28.703Z,100.00
2022-09-22T23:26:18.058Z,100.00
2022-09-22T23:28:52.678Z,100.00
2022-09-22T23:31:25.979Z,100.00
2022-09-22T23:34:09.119Z,100.00
2022-09-22T23:36:48.246Z,100.00
2022-09-22T23:39:23.231Z,100.00
2022-09-22T23:41:56.402Z,100.00
2022-09-22T23:44:42.322Z,100.00
2022-09-22T23:47:20.837Z,100.00
2022-09-22T23:50:06.555Z,100.00
2022-09-22T23:52:45.831Z,100.00
2022-09-22T23:55:26.855Z,100.00
2022-09-22T23:57:58.180Z,100.00
